createdAt,value
2018-12-07T00:01:42.615Z,100590.36
2018-12-07T00:06:45.105Z,100580.94
2018-12-07T00:11:47.894Z,100566.55
2018-12-07T00:16:50.359Z,100556.43
2018-12-07T00:21:52.990Z,100557.00
2018-12-07T00:26:56.554Z,100553.14
2018-12-07T00:31:59.068Z,100545.23
2018-12-07T00:37:01.479Z,100545.21
2018-12-07T00:42:03.913Z,100550.82
2018-12-07T00:47:06.320Z,100544.83
2018-12-07T00:52:08.703Z,100535.02
2018-12-07T00:57:11.123Z,100531.88
2018-12-07T01:02:13.568Z,100524.59
2018-12-07T01:07:15.978Z,100519.73
2018-12-07T01:12:19.431Z,100525.63
2018-12-07T01:17:21.865Z,100517.92
2018-12-07T01:22:24.349Z,100513.83
2018-12-07T01:27:26.753Z,100504.37
2018-12-07T01:32:29.254Z,100507.28
2018-12-07T01:37:31.654Z,100502.66
2018-12-07T01:42:34.066Z,100503.70
2018-12-07T01:47:41.152Z,100499.26
2018-12-07T01:52:43.712Z,100495.73
2018-12-07T01:57:46.090Z,100491.77
2018-12-07T02:02:48.584Z,100486.75
2018-12-07T02:07:51.103Z,100484.78
2018-12-07T02:12:53.710Z,100472.38
2018-12-07T02:17:56.107Z,100468.25
2018-12-07T02:22:58.740Z,100451.14
2018-12-07T02:28:01.086Z,100438.73
2018-12-07T02:33:03.710Z,100437.33
2018-12-07T02:38:06.086Z,100431.40
2018-12-07T02:43:08.738Z,100423.34
2018-12-07T02:48:11.119Z,100413.12
2018-12-07T02:53:13.580Z,100413.91
2018-12-07T02:58:16.420Z,100407.47
2018-12-07T03:03:19.209Z,100411.64
2018-12-07T03:08:21.706Z,100407.73
2018-12-07T03:13:24.090Z,100398.62
2018-12-07T03:18:30.546Z,100391.42
2018-12-07T03:23:32.939Z,100377.40
2018-12-07T03:28:35.392Z,100373.03
2018-12-07T03:33:37.790Z,100375.04
2018-12-07T03:38:40.427Z,100374.35
2018-12-07T03:43:42.872Z,100376.55
2018-12-07T03:48:45.746Z,100373.02
2018-12-07T03:53:48.163Z,100369.88
2018-12-07T03:58:50.573Z,100365.66
2018-12-07T04:03:53.052Z,100354.56
2018-12-07T04:08:56.428Z,100349.77
2018-12-07T04:13:58.904Z,100350.14
2018-12-07T04:19:01.323Z,100350.36
2018-12-07T04:24:03.845Z,100350.94
2018-12-07T04:29:08.843Z,100349.56
2018-12-07T04:34:11.520Z,100341.28
2018-12-07T04:39:13.967Z,100331.74
2018-12-07T04:44:16.625Z,100332.39
2018-12-07T04:49:19.478Z,100328.39
2018-12-07T04:54:21.908Z,100327.25
2018-12-07T04:59:24.361Z,100325.22
2018-12-07T05:04:26.797Z,100316.65
2018-12-07T05:09:29.291Z,100311.56
2018-12-07T05:14:31.758Z,100309.38
2018-12-07T05:19:34.163Z,100294.13
2018-12-07T05:24:36.787Z,100297.53
2018-12-07T05:29:39.306Z,100287.14
2018-12-07T05:34:41.821Z,100289.70
2018-12-07T05:39:44.310Z,100285.81
2018-12-07T05:44:46.891Z,100294.39
2018-12-07T05:49:49.242Z,100287.84
2018-12-07T05:54:51.710Z,100277.19
2018-12-07T05:59:54.237Z,100271.55
2018-12-07T06:04:56.879Z,100276.28
2018-12-07T06:09:59.515Z,100272.11
2018-12-07T06:15:01.993Z,100270.36
2018-12-07T06:20:04.666Z,100265.98
2018-12-07T06:25:07.163Z,100271.31
2018-12-07T06:30:09.682Z,100269.77
2018-12-07T06:35:12.380Z,100260.19
2018-12-07T06:40:14.837Z,100259.33
2018-12-07T06:45:17.507Z,100255.33
2018-12-07T06:50:19.888Z,100255.12
2018-12-07T06:55:22.305Z,100251.43
2018-12-07T07:00:24.771Z,100244.67
2018-12-07T07:05:27.378Z,100248.77
2018-12-07T07:10:29.860Z,100249.05
2018-12-07T07:15:32.555Z,100255.69
2018-12-07T07:20:35.248Z,100246.27
2018-12-07T07:25:37.952Z,100241.35
2018-12-07T07:30:41.010Z,100234.36
2018-12-07T07:35:43.658Z,100226.45
2018-12-07T07:40:46.086Z,100220.27
2018-12-07T07:45:48.682Z,100210.80
2018-12-07T07:50:51.250Z,100197.30
2018-12-07T07:55:53.822Z,100192.52
2018-12-07T08:00:56.234Z,100175.69
2018-12-07T08:05:58.715Z,100170.27
2018-12-07T08:11:01.144Z,100170.27
2018-12-07T08:16:03.972Z,100159.34
2018-12-07T08:21:06.500Z,100150.88
2018-12-07T08:26:09.315Z,100135.33
2018-12-07T08:31:12.070Z,100132.20
2018-12-07T08:36:14.507Z,100131.25
2018-12-07T08:41:17.276Z,100128.68
2018-12-07T08:46:19.996Z,100129.06
2018-12-07T08:51:23.254Z,100122.02
2018-12-07T08:56:26.216Z,100109.88
2018-12-07T09:01:29.206Z,100093.52
2018-12-07T09:06:31.703Z,100088.67
2018-12-07T09:11:34.309Z,100080.81
2018-12-07T09:16:36.881Z,100079.28
2018-12-07T09:21:39.610Z,100075.56
2018-12-07T09:26:42.306Z,100063.70
2018-12-07T09:31:45.030Z,100059.70
2018-12-07T09:36:47.413Z,100059.89
2018-12-07T09:41:50.027Z,100052.27
2018-12-07T09:46:52.579Z,100051.99
2018-12-07T09:51:54.988Z,100044.38
2018-12-07T09:56:57.644Z,100040.00
2018-12-07T10:02:01.359Z,100021.72
2018-12-07T10:07:04.271Z,100009.83
2018-12-07T10:12:06.978Z,100002.69
2018-12-07T10:17:09.526Z,99994.41
2018-12-07T10:22:11.923Z,99982.52
2018-12-07T10:27:14.537Z,99976.80
2018-12-07T10:32:16.946Z,99955.97
2018-12-07T10:37:19.445Z,99954.35
2018-12-07T10:42:21.813Z,99956.98
2018-12-07T10:47:24.355Z,99960.22
2018-12-07T10:52:26.953Z,99955.45
2018-12-07T10:57:30.447Z,99941.45
2018-12-07T11:04:44.925Z,99922.45
2018-12-07T11:10:51.359Z,99910.73
2018-12-07T11:16:00.024Z,99893.59
2018-12-07T11:21:07.926Z,99893.03
2018-12-07T11:26:15.935Z,99880.38
2018-12-07T11:31:23.967Z,99866.30
2018-12-07T11:36:26.512Z,99853.09
2018-12-07T11:41:28.886Z,99835.00
2018-12-07T11:46:31.407Z,99815.86
2018-12-07T11:51:34.231Z,99802.72
2018-12-07T11:56:36.710Z,99789.03
2018-12-07T12:01:44.770Z,99771.22
2018-12-07T12:06:43.819Z,99764.30
2018-12-07T12:11:46.309Z,99752.88
2018-12-07T12:16:49.074Z,99740.33
2018-12-07T12:21:51.607Z,99731.08
2018-12-07T12:26:54.061Z,99719.01
2018-12-07T12:31:56.730Z,99712.95
2018-12-07T12:36:59.405Z,99707.28
2018-12-07T12:42:02.130Z,99692.92
2018-12-07T12:47:04.693Z,99680.42
2018-12-07T12:52:07.280Z,99670.52
2018-12-07T12:57:09.836Z,99666.16
2018-12-07T13:02:13.182Z,99651.52
2018-12-07T13:07:16.083Z,99638.09
2018-12-07T13:12:18.574Z,99628.03
2018-12-07T13:17:21.124Z,99615.52
2018-12-07T13:22:23.708Z,99599.09
2018-12-07T13:27:26.363Z,99584.61
2018-12-07T13:32:29.034Z,99574.44
2018-12-07T13:37:31.449Z,99566.94
2018-12-07T13:42:33.882Z,99565.34
2018-12-07T13:47:36.447Z,99549.86
2018-12-07T13:52:39.268Z,99533.66
2018-12-07T13:57:41.724Z,99511.58
2018-12-07T14:02:44.510Z,99506.00
2018-12-07T14:07:47.209Z,99504.84
2018-12-07T14:12:49.827Z,99497.59
2018-12-07T14:17:52.502Z,99474.89
2018-12-07T14:22:55.585Z,99472.95
2018-12-07T14:27:58.169Z,99466.66
2018-12-07T14:33:01.341Z,99457.19
2018-12-07T14:38:03.998Z,99431.29
2018-12-07T14:43:06.554Z,99426.56
2018-12-07T14:48:09.256Z,99419.27
2018-12-07T14:53:11.682Z,99425.69
2018-12-07T14:58:14.455Z,99410.19
2018-12-07T15:03:17.238Z,99417.33
2018-12-07T15:08:19.778Z,99408.01
2018-12-07T15:13:22.535Z,99400.59
2018-12-07T15:18:25.127Z,99412.72
2018-12-07T15:23:27.552Z,99397.64
2018-12-07T15:28:30.484Z,99398.18
2018-12-07T15:33:33.401Z,99389.84
2018-12-07T15:38:36.434Z,99381.58
2018-12-07T15:43:39.472Z,99371.22
2018-12-07T15:48:42.298Z,99362.92
2018-12-07T15:53:44.751Z,99351.11
2018-12-07T15:58:47.622Z,99346.57
2018-12-07T16:03:50.359Z,99332.49
2018-12-07T16:08:53.151Z,99308.34
2018-12-07T16:13:55.732Z,99302.85
2018-12-07T16:18:58.465Z,99297.65
2018-12-07T16:24:01.071Z,99282.22
2018-12-07T16:29:03.899Z,99265.28
2018-12-07T16:34:06.586Z,99274.48
2018-12-07T16:39:09.260Z,99257.06
2018-12-07T16:44:11.968Z,99254.41
2018-12-07T16:49:14.708Z,99246.01
2018-12-07T16:54:17.369Z,99242.25
2018-12-07T16:59:20.093Z,99228.48
2018-12-07T17:04:22.685Z,99212.28
2018-12-07T17:09:25.275Z,99195.44
2018-12-07T17:14:28.096Z,99188.59
2018-12-07T17:19:30.903Z,99180.81
2018-12-07T17:24:33.446Z,99168.77
2018-12-07T17:29:36.515Z,99153.47
2018-12-07T17:34:39.499Z,99145.81
2018-12-07T17:39:42.045Z,99133.17
2018-12-07T17:44:44.812Z,99137.88
2018-12-07T17:49:47.337Z,99128.62
2018-12-07T17:54:49.779Z,99121.28
2018-12-07T17:59:52.607Z,99110.02
2018-12-07T18:04:55.546Z,99108.92
2018-12-07T18:09:58.290Z,99108.48
2018-12-07T18:15:00.885Z,99097.28
2018-12-07T18:20:04.974Z,99083.36
2018-12-07T18:25:07.958Z,99077.19
2018-12-07T18:30:10.562Z,99068.46
2018-12-07T18:35:13.160Z,99060.48
2018-12-07T18:40:15.932Z,99041.41
2018-12-07T18:45:18.525Z,99038.34
2018-12-07T18:50:20.967Z,99032.42
2018-12-07T18:55:23.598Z,99019.34
2018-12-07T19:00:26.670Z,99007.33
2018-12-07T19:05:29.094Z,99006.03
2018-12-07T19:10:31.693Z,99013.48
2018-12-07T19:15:34.218Z,99016.12
2018-12-07T19:20:36.665Z,99003.91
2018-12-07T19:25:39.155Z,99002.39
2018-12-07T19:30:41.948Z,99007.73
2018-12-07T19:35:44.708Z,99007.25
2018-12-07T19:40:47.603Z,99017.43
2018-12-07T19:45:50.253Z,99039.07
2018-12-07T19:50:53.067Z,99066.63
2018-12-07T19:55:55.856Z,99093.75
2018-12-07T20:00:58.543Z,99119.00
2018-12-07T20:06:00.968Z,99136.33
2018-12-07T20:11:03.763Z,99183.38
2018-12-07T20:16:06.241Z,99185.34
2018-12-07T20:21:08.670Z,99229.41
2018-12-07T20:26:11.272Z,99241.14
2018-12-07T20:31:14.049Z,99244.82
2018-12-07T20:36:16.744Z,99252.58
2018-12-07T20:41:19.674Z,99265.86
2018-12-07T20:46:22.200Z,99308.14
2018-12-07T20:51:26.283Z,99351.27
2018-12-07T20:56:29.191Z,99356.94
2018-12-07T21:01:32.139Z,99362.63
2018-12-07T21:11:03.245Z,99377.94
2018-12-07T21:21:57.581Z,99416.20
2018-12-07T21:27:00.126Z,99449.23
2018-12-07T21:32:07.395Z,99463.01
2018-12-07T21:37:09.963Z,99476.48
2018-12-07T21:42:14.098Z,99491.63
2018-12-07T21:53:23.464Z,99530.47
2018-12-07T21:58:26.035Z,99541.22
2018-12-07T22:03:28.924Z,99559.85
2018-12-07T22:08:32.323Z,99550.51
2018-12-07T22:13:34.846Z,99558.14
2018-12-07T22:18:37.804Z,99562.00
2018-12-07T22:23:40.427Z,99595.98
2018-12-07T22:28:42.907Z,99600.61
2018-12-07T22:33:47.271Z,99603.59
2018-12-07T22:38:51.041Z,99620.16
2018-12-07T22:43:54.218Z,99619.42
2018-12-07T22:48:58.642Z,99628.09
2018-12-07T22:54:01.330Z,99623.97
2018-12-07T22:59:06.185Z,99626.34
2018-12-07T23:04:08.826Z,99624.94
2018-12-07T23:09:11.328Z,99640.59
2018-12-07T23:14:14.726Z,99649.90
2018-12-07T23:19:17.839Z,99650.47
2018-12-07T23:24:20.258Z,99653.95
2018-12-07T23:29:22.958Z,99656.19
2018-12-07T23:34:25.504Z,99642.38
2018-12-07T23:39:27.875Z,99646.83
2018-12-07T23:44:30.295Z,99645.66
2018-12-07T23:49:32.759Z,99651.91
2018-12-07T23:54:35.166Z,99678.30
2018-12-07T23:59:37.579Z,99669.50
